Time;durP1;ratioP1;P1;durP2;ratioP2;P2;SDS_P1;SDS_P2;PMS_P1;PMS_P2;Temp;Humidity;BMP_temperature;BMP_pressure;BME280_temperature;BME280_humidity;BME280_pressure;Samples;Min_cycle;Max_cycle;Signal;HPM_P1;HPM_P2
2023/05/22 00:04:01;;;;;;;2.88;2.58;;;20.00;56.90;;;;;;8212168;28;20031;-82
2023/05/22 00:08:03;;;;;;;3.15;2.80;;;20.00;57.00;;;;;;8212203;28;20027;-82
2023/05/22 00:12:04;;;;;;;3.10;2.65;;;20.00;56.90;;;;;;8227849;28;20065;-82
2023/05/22 00:16:05;;;;;;;3.10;2.60;;;20.00;56.90;;;;;;8212024;28;20027;-82
2023/05/22 00:20:09;;;;;;;3.22;2.55;;;20.00;57.40;;;;;;8228253;28;20042;-82
2023/05/22 00:24:10;;;;;;;3.20;2.60;;;20.00;56.90;;;;;;8196729;28;20042;-81
2023/05/22 00:28:11;;;;;;;4.43;2.58;;;20.00;56.90;;;;;;8195985;28;20080;-82
2023/05/22 00:32:11;;;;;;;3.08;2.72;;;20.00;56.90;;;;;;8195897;28;20039;-82
2023/05/22 00:36:12;;;;;;;3.78;2.85;;;20.00;56.90;;;;;;8195954;28;20051;-82
2023/05/22 00:40:16;;;;;;;2.33;2.13;;;20.00;56.90;;;;;;8195544;29;20497;-82
2023/05/22 00:44:17;;;;;;;3.35;2.80;;;20.00;56.80;;;;;;8195632;29;20103;-81
2023/05/22 00:48:18;;;;;;;3.00;2.60;;;20.00;56.90;;;;;;8179932;29;20023;-82
2023/05/22 00:52:19;;;;;;;2.85;2.20;;;20.00;56.90;;;;;;8184017;28;20531;-82
2023/05/22 00:56:20;;;;;;;2.88;2.63;;;20.00;56.80;;;;;;8230739;28;20034;-82
2023/05/22 01:00:22;;;;;;;3.17;2.70;;;20.00;56.80;;;;;;8233170;28;20038;-82
2023/05/22 01:04:24;;;;;;;2.90;2.30;;;20.00;56.90;;;;;;8234751;28;20050;-82
2023/05/22 01:08:25;;;;;;;3.28;2.67;;;20.00;56.90;;;;;;8217102;28;20504;-81
2023/05/22 01:12:54;;;;;;;2.92;2.58;;;20.00;56.90;;;;;;8216907;28;20396;-82
2023/05/22 01:17:23;;;;;;;2.88;2.40;;;20.00;56.90;;;;;;8233468;28;20459;-82
2023/05/22 01:21:51;;;;;;;3.15;2.58;;;20.00;56.90;;;;;;8230052;28;20038;-81
2023/05/22 01:26:04;;;;;;;2.85;2.50;;;20.00;56.90;;;;;;8235242;28;20469;-81
2023/05/22 01:30:29;;;;;;;2.85;2.50;;;20.00;57.00;;;;;;8235730;28;20027;-81
2023/05/22 01:34:34;;;;;;;2.55;2.22;;;20.00;57.40;;;;;;8269238;28;20007;-82
2023/05/22 01:38:36;;;;;;;2.45;2.22;;;20.00;56.90;;;;;;8276219;28;20143;-82
2023/05/22 01:42:39;;;;;;;3.30;2.53;;;19.90;56.90;;;;;;8275306;28;20027;-82
2023/05/22 01:46:40;;;;;;;3.13;2.40;;;20.00;56.90;;;;;;8259926;28;20153;-81
2023/05/22 01:50:41;;;;;;;2.28;2.08;;;20.00;56.90;;;;;;8259170;28;20030;-82
2023/05/22 01:54:57;;;;;;;2.33;2.13;;;20.00;56.90;;;;;;8259112;28;20046;-82
2023/05/22 01:59:19;;;;;;;2.60;2.15;;;20.00;56.90;;;;;;8243013;28;20122;-82
2023/05/22 02:03:26;;;;;;;2.78;2.40;;;20.00;56.90;;;;;;8233387;28;20113;-82
2023/05/22 02:07:28;;;;;;;2.60;2.30;;;20.00;56.90;;;;;;8232056;28;20501;-82
2023/05/22 02:11:31;;;;;;;3.50;2.75;;;20.00;56.90;;;;;;8215851;28;20369;-82
2023/05/22 02:15:35;;;;;;;3.00;2.50;;;20.00;56.90;;;;;;8232466;28;20034;-82
2023/05/22 02:19:35;;;;;;;2.85;2.10;;;19.90;56.80;;;;;;8231071;28;20121;-82
2023/05/22 02:23:36;;;;;;;2.55;2.08;;;20.00;56.90;;;;;;8215077;28;20042;-82
2023/05/22 02:27:37;;;;;;;2.22;1.98;;;19.90;56.90;;;;;;8230538;28;20557;-82
2023/05/22 02:31:38;;;;;;;2.70;2.20;;;20.00;56.90;;;;;;8230759;28;20027;-82
2023/05/22 02:35:39;;;;;;;2.83;2.30;;;19.90;56.90;;;;;;8230366;28;20054;-82
2023/05/22 02:39:39;;;;;;;2.95;2.30;;;20.00;56.90;;;;;;8214155;28;20093;-82
2023/05/22 02:43:40;;;;;;;2.70;2.42;;;20.00;57.10;;;;;;8214334;28;20019;-82
2023/05/22 02:47:41;;;;;;;2.92;2.40;;;20.00;57.00;;;;;;8213907;28;20122;-82
2023/05/22 02:51:46;;;;;;;2.65;2.20;;;20.00;57.00;;;;;;8214257;28;20043;-82
2023/05/22 02:55:47;;;;;;;3.75;2.92;;;20.00;56.90;;;;;;8230127;28;20030;-82
2023/05/22 02:59:47;;;;;;;2.58;2.25;;;20.00;56.90;;;;;;8213584;28;20077;-82
2023/05/22 03:03:49;;;;;;;2.30;2.10;;;20.00;56.90;;;;;;8213918;28;20477;-82
2023/05/22 03:07:49;;;;;;;2.72;2.33;;;20.00;56.90;;;;;;8213653;28;20030;-82
2023/05/22 03:11:50;;;;;;;2.42;2.22;;;20.00;56.90;;;;;;8213239;28;20034;-82
2023/05/22 03:15:51;;;;;;;2.80;2.22;;;20.00;56.90;;;;;;8229408;28;20062;-82
2023/05/22 03:19:51;;;;;;;2.30;2.10;;;20.00;56.90;;;;;;8228600;28;20040;-82
2023/05/22 03:23:52;;;;;;;2.20;1.90;;;19.90;56.80;;;;;;8197476;29;20036;-82
2023/05/22 03:27:53;;;;;;;2.55;2.33;;;20.00;56.90;;;;;;8196824;29;20371;-82
2023/05/22 03:31:53;;;;;;;2.47;2.28;;;20.00;57.00;;;;;;8196960;29;20039;-82
2023/05/22 03:35:55;;;;;;;2.00;1.80;;;20.00;56.90;;;;;;8180879;28;20136;-82
2023/05/22 03:39:55;;;;;;;;;;;20.00;56.80;;;;;;8197293;29;20402;-82
2023/05/22 03:43:57;;;;;;;2.43;2.10;;;20.10;56.70;;;;;;8196519;29;19933;-82
2023/05/22 03:47:58;;;;;;;2.45;2.00;;;20.10;56.60;;;;;;8198078;29;20402;-82
2023/05/22 03:51:58;;;;;;;2.67;2.40;;;20.10;56.60;;;;;;8198443;28;20062;-82
2023/05/22 03:55:59;;;;;;;2.80;2.17;;;20.10;56.60;;;;;;8212188;28;20046;-82
2023/05/22 04:00:08;;;;;;;2.25;1.98;;;20.10;56.60;;;;;;8228232;28;20039;-82
2023/05/22 04:04:10;;;;;;;2.38;1.95;;;20.10;56.60;;;;;;8213427;28;20397;-82
2023/05/22 04:08:11;;;;;;;2.65;1.98;;;20.10;56.60;;;;;;8229429;28;20240;-82
2023/05/22 04:12:12;;;;;;;2.15;1.95;;;20.10;56.60;;;;;;8229383;28;20050;-82
2023/05/22 04:16:16;;;;;;;2.25;1.98;;;20.10;56.60;;;;;;8229458;28;20041;-82
2023/05/22 04:20:17;;;;;;;2.45;2.15;;;20.10;56.60;;;;;;8212817;28;20041;-82
2023/05/22 04:24:17;;;;;;;3.25;2.40;;;20.00;56.60;;;;;;8227818;28;20034;-82
2023/05/22 04:28:21;;;;;;;2.20;1.98;;;20.10;56.60;;;;;;8212528;28;20070;-82
2023/05/22 04:32:22;;;;;;;2.17;1.92;;;20.00;56.60;;;;;;8234606;28;20035;-82
2023/05/22 04:36:24;;;;;;;2.30;1.85;;;20.10;56.60;;;;;;8201957;28;20065;-82
2023/05/22 04:40:25;;;;;;;2.67;2.05;;;20.10;56.70;;;;;;8202291;28;20042;-82
2023/05/22 04:44:26;;;;;;;2.28;2.08;;;20.10;56.70;;;;;;8233919;28;20066;-82
2023/05/22 04:48:26;;;;;;;2.53;1.90;;;20.10;56.70;;;;;;8217496;28;20460;-82
2023/05/22 04:52:27;;;;;;;1.58;1.40;;;20.10;56.70;;;;;;8234262;28;20035;-82
2023/05/22 04:56:29;;;;;;;1.95;1.73;;;20.10;56.80;;;;;;8234593;28;20031;-83
2023/05/22 05:00:29;;;;;;;2.35;2.10;;;20.10;56.80;;;;;;8233154;28;20046;-82
2023/05/22 05:04:30;;;;;;;2.33;1.80;;;20.10;56.70;;;;;;8217636;28;20125;-82
2023/05/22 05:08:31;;;;;;;2.25;2.05;;;20.10;56.60;;;;;;8233130;28;20035;-82
2023/05/22 05:12:31;;;;;;;2.40;1.88;;;20.10;56.50;;;;;;8233094;28;20489;-82
2023/05/22 05:16:32;;;;;;;1.83;1.73;;;20.10;56.40;;;;;;8232842;28;20042;-82
2023/05/22 05:20:33;;;;;;;2.42;2.08;;;20.20;56.50;;;;;;8197881;28;20062;-82
2023/05/22 05:24:33;;;;;;;2.15;1.95;;;20.10;56.50;;;;;;8216969;28;20397;-82
2023/05/22 05:28:34;;;;;;;2.00;1.83;;;20.10;56.40;;;;;;8200526;29;20098;-82
2023/05/22 05:32:35;;;;;;;2.28;2.08;;;20.10;56.40;;;;;;8201608;29;20322;-82
2023/05/22 05:36:35;;;;;;;2.25;2.05;;;20.10;56.40;;;;;;8184425;28;20540;-82
2023/05/22 05:40:36;;;;;;;2.65;2.05;;;20.10;56.40;;;;;;8183770;28;20043;-82
2023/05/22 05:44:37;;;;;;;2.28;1.98;;;20.10;56.50;;;;;;8199887;29;20036;-82
2023/05/22 05:48:38;;;;;;;2.28;1.88;;;20.10;56.50;;;;;;8184674;29;20098;-82
2023/05/22 05:52:38;;;;;;;2.45;2.00;;;20.10;56.50;;;;;;8191290;28;20057;-82
2023/05/22 05:56:39;;;;;;;2.35;2.15;;;20.10;56.50;;;;;;8215671;28;20038;-82
2023/05/22 06:00:41;;;;;;;2.00;1.80;;;20.10;56.50;;;;;;8232888;28;20031;-82
2023/05/22 06:04:41;;;;;;;2.15;1.70;;;20.10;56.50;;;;;;8232854;28;20031;-82
2023/05/22 06:08:43;;;;;;;1.77;1.67;;;20.10;56.50;;;;;;8231263;28;20035;-82
2023/05/22 06:12:43;;;;;;;2.25;1.60;;;20.10;56.50;;;;;;8231245;28;20292;-82
2023/05/22 06:16:44;;;;;;;2.33;1.90;;;20.10;56.60;;;;;;8215226;28;20031;-82
2023/05/22 06:20:45;;;;;;;1.85;1.65;;;20.10;56.60;;;;;;8214833;28;20035;-82
2023/05/22 06:24:46;;;;;;;2.08;1.77;;;20.10;56.60;;;;;;8232240;28;20114;-82
2023/05/22 06:28:46;;;;;;;2.20;1.98;;;20.10;56.60;;;;;;8214490;28;20173;-82
2023/05/22 06:32:47;;;;;;;2.50;1.95;;;20.10;56.60;;;;;;8198728;28;20370;-82
2023/05/22 06:36:50;;;;;;;1.83;1.60;;;20.10;56.60;;;;;;8244299;28;20092;-82
2023/05/22 06:40:51;;;;;;;1.70;1.60;;;20.10;56.60;;;;;;8262517;28;20068;-82
2023/05/22 06:44:52;;;;;;;1.88;1.70;;;20.10;56.60;;;;;;8262439;28;20506;-82
2023/05/22 06:48:53;;;;;;;2.13;1.90;;;20.10;56.60;;;;;;8278591;28;20036;-82
2023/05/22 06:52:54;;;;;;;1.95;1.80;;;20.00;56.60;;;;;;8277635;28;20030;-82
2023/05/22 06:56:56;;;;;;;1.90;1.65;;;20.00;56.60;;;;;;8278370;28;20081;-82
2023/05/22 07:00:57;;;;;;;1.83;1.65;;;20.10;56.60;;;;;;8295345;28;20026;-82
2023/05/22 07:04:57;;;;;;;1.98;1.77;;;20.00;56.60;;;;;;8261709;28;20026;-82
2023/05/22 07:08:58;;;;;;;2.15;1.55;;;20.10;56.60;;;;;;8262381;28;20041;-82
2023/05/22 07:12:59;;;;;;;2.08;1.92;;;20.10;56.70;;;;;;8245289;28;20030;-82
2023/05/22 07:17:00;;;;;;;2.05;1.70;;;20.10;56.80;;;;;;8278296;28;20041;-82
2023/05/22 07:21:01;;;;;;;2.15;1.95;;;20.00;56.70;;;;;;8278001;28;20514;-82
2023/05/22 07:25:02;;;;;;;;;;;20.10;56.70;;;;;;8278467;28;20396;-82
2023/05/22 07:29:03;;;;;;;2.40;1.83;;;20.10;56.60;;;;;;8277478;28;19936;-82
2023/05/22 07:33:04;;;;;;;2.03;1.60;;;20.20;56.50;;;;;;8277652;28;20037;-82
2023/05/22 07:37:07;;;;;;;1.67;1.58;;;20.10;56.50;;;;;;8294371;28;20521;-81
2023/05/22 07:41:08;;;;;;;1.98;1.60;;;20.10;56.40;;;;;;8277425;28;20034;-82
2023/05/22 07:45:09;;;;;;;1.92;1.50;;;20.20;56.40;;;;;;8277106;28;20033;-82
2023/05/22 07:49:10;;;;;;;;;;;20.20;56.40;;;;;;8277509;28;20030;-82
2023/05/22 07:53:11;;;;;;;2.17;1.97;;;20.10;56.40;;;;;;8261179;28;20389;-82
2023/05/22 07:57:11;;;;;;;1.73;1.63;;;20.10;56.40;;;;;;8261395;28;20038;-82
2023/05/22 08:01:14;;;;;;;2.05;1.67;;;20.10;56.40;;;;;;8276660;28;20105;-82
2023/05/22 08:05:15;;;;;;;1.98;1.73;;;20.10;56.50;;;;;;8300660;28;20034;-82
2023/05/22 08:09:15;;;;;;;2.47;1.80;;;20.10;56.50;;;;;;8287452;28;20037;-82
2023/05/22 08:13:17;;;;;;;2.10;1.70;;;20.10;56.50;;;;;;8287295;28;20034;-83
2023/05/22 08:17:18;;;;;;;1.58;1.45;;;20.10;56.50;;;;;;8287547;28;20304;-83
2023/05/22 08:21:19;;;;;;;1.97;1.60;;;20.10;56.50;;;;;;8287199;28;20480;-83
2023/05/22 08:25:20;;;;;;;2.05;1.60;;;20.10;56.50;;;;;;8288090;28;20332;-82
2023/05/22 08:29:20;;;;;;;2.35;1.92;;;20.10;56.60;;;;;;8271161;28;20030;-82
2023/05/22 08:33:21;;;;;;;2.10;1.67;;;20.10;56.60;;;;;;8304765;28;20041;-82
2023/05/22 08:37:22;;;;;;;1.75;1.42;;;20.10;56.60;;;;;;8236840;28;20061;-82
2023/05/22 08:41:22;;;;;;;2.10;1.58;;;20.10;56.60;;;;;;8238800;28;20035;-82
2023/05/22 08:45:24;;;;;;;1.83;1.55;;;20.00;56.60;;;;;;8222162;28;20093;-82
2023/05/22 08:49:25;;;;;;;1.40;1.30;;;20.10;56.60;;;;;;8222654;28;20039;-82
2023/05/22 08:53:28;;;;;;;1.58;1.45;;;20.10;56.70;;;;;;8238548;28;20038;-82
2023/05/22 08:57:29;;;;;;;1.70;1.60;;;20.00;56.60;;;;;;8222352;28;20066;-82
2023/05/22 09:01:31;;;;;;;1.70;1.48;;;20.10;56.70;;;;;;8239233;28;20504;-82
2023/05/22 09:05:33;;;;;;;2.00;1.63;;;20.10;56.70;;;;;;8238412;28;20031;-82
2023/05/22 09:09:37;;;;;;;1.67;1.48;;;20.00;56.60;;;;;;8222312;28;20054;-82
2023/05/22 09:13:39;;;;;;;1.67;1.52;;;20.00;56.70;;;;;;8237896;28;20030;-82
2023/05/22 09:17:40;;;;;;;1.70;1.45;;;20.00;56.70;;;;;;8217178;28;20039;-82
2023/05/22 09:21:41;;;;;;;1.80;1.60;;;20.00;56.70;;;;;;8233280;28;20039;-82
2023/05/22 09:25:42;;;;;;;1.63;1.30;;;20.10;56.70;;;;;;8234448;28;20090;-81
2023/05/22 09:29:51;;;;;;;1.58;1.48;;;20.00;56.70;;;;;;8203562;28;20043;-82
2023/05/22 09:33:52;;;;;;;1.98;1.67;;;20.00;56.70;;;;;;8220365;28;20023;-82
2023/05/22 09:37:54;;;;;;;1.67;1.58;;;20.00;56.70;;;;;;8251622;28;20055;-82
2023/05/22 09:42:00;;;;;;;1.50;1.40;;;20.00;56.70;;;;;;8276208;28;20061;-82
2023/05/22 09:46:03;;;;;;;1.40;1.30;;;20.00;56.70;;;;;;8275652;28;20015;-82
2023/05/22 09:50:06;;;;;;;1.75;1.60;;;20.00;56.70;;;;;;8259798;28;20042;-82
2023/05/22 09:54:08;;;;;;;1.75;1.48;;;20.00;56.70;;;;;;8243488;28;20087;-82
2023/05/22 09:58:12;;;;;;;2.20;1.75;;;20.00;56.70;;;;;;8227182;28;20051;-82
2023/05/22 10:02:13;;;;;;;1.58;1.48;;;20.00;56.70;;;;;;8242773;28;20066;-82
2023/05/22 10:06:16;;;;;;;1.67;1.58;;;20.00;56.70;;;;;;8194263;28;20027;-82
2023/05/22 10:10:20;;;;;;;1.60;1.50;;;20.00;56.70;;;;;;8204157;29;20045;-82
2023/05/22 10:14:22;;;;;;;1.77;1.58;;;20.00;56.70;;;;;;8202455;29;20034;-82
2023/05/22 10:18:24;;;;;;;1.75;1.40;;;20.00;56.80;;;;;;8200477;29;20090;-82
2023/05/22 10:22:27;;;;;;;1.40;1.30;;;20.00;57.30;;;;;;8188887;28;20039;-82
2023/05/22 10:26:29;;;;;;;1.40;1.30;;;20.00;56.80;;;;;;8230969;28;20125;-82
2023/05/22 10:30:48;;;;;;;1.50;1.33;;;20.00;56.70;;;;;;8231123;28;20046;-82
2023/05/22 10:35:13;;;;;;;1.30;1.20;;;20.00;56.70;;;;;;8231415;28;20037;-82
2023/05/22 10:39:38;;;;;;;1.58;1.30;;;20.00;56.70;;;;;;8246415;28;20184;-82
2023/05/22 10:43:47;;;;;;;1.45;1.20;;;20.00;56.80;;;;;;8246769;28;20546;-82
2023/05/22 10:47:47;;;;;;;1.75;1.30;;;20.00;56.80;;;;;;8230877;28;20022;-82
2023/05/22 10:51:54;;;;;;;1.60;1.50;;;20.00;56.70;;;;;;8246742;28;20508;-82
2023/05/22 10:55:55;;;;;;;1.55;1.23;;;20.00;56.70;;;;;;8263508;28;20045;-81
2023/05/22 11:00:06;;;;;;;1.70;1.40;;;20.00;56.80;;;;;;8230018;28;20383;-82
2023/05/22 11:04:07;;;;;;;1.45;1.25;;;20.00;56.80;;;;;;8263493;28;20026;-82
2023/05/22 11:08:31;;;;;;;1.43;1.33;;;20.00;56.80;;;;;;8229425;28;20344;-82
2023/05/22 11:12:32;;;;;;;1.77;1.50;;;20.00;56.80;;;;;;8229029;28;20277;-82
2023/05/22 11:16:33;;;;;;;1.45;1.35;;;20.00;56.80;;;;;;8229410;28;20034;-82
2023/05/22 11:20:38;;;;;;;1.10;1.00;;;20.00;56.70;;;;;;8245091;28;20061;-82
2023/05/22 11:24:40;;;;;;;1.42;1.33;;;20.00;56.70;;;;;;8262592;28;20058;-82
2023/05/22 11:28:41;;;;;;;1.58;1.40;;;20.00;56.70;;;;;;8262762;28;20097;-82
2023/05/22 11:32:43;;;;;;;1.42;1.30;;;20.00;56.70;;;;;;8229149;28;20030;-82
2023/05/22 11:36:44;;;;;;;2.50;1.50;;;20.00;56.70;;;;;;8228703;28;20058;-82
2023/05/22 11:40:45;;;;;;;1.60;1.50;;;20.00;56.70;;;;;;8245080;28;20045;-82
2023/05/22 11:44:46;;;;;;;1.60;1.30;;;20.00;56.70;;;;;;8260820;28;20030;-82
2023/05/22 11:48:47;;;;;;;1.95;1.33;;;20.00;56.70;;;;;;8260592;28;20303;-82
2023/05/22 11:52:48;;;;;;;1.85;1.70;;;20.00;56.80;;;;;;8244870;28;20038;-82
2023/05/22 11:56:49;;;;;;;1.42;1.33;;;20.00;56.80;;;;;;8244580;28;20113;-82
2023/05/22 12:00:50;;;;;;;1.30;1.20;;;20.00;56.80;;;;;;8244002;28;20042;-82
2023/05/22 12:04:55;;;;;;;1.20;1.13;;;20.00;56.80;;;;;;8260571;28;20721;-82
2023/05/22 12:08:56;;;;;;;1.17;1.08;;;20.00;56.80;;;;;;8260306;28;20027;-82
2023/05/22 12:12:56;;;;;;;1.35;1.25;;;20.00;56.80;;;;;;8244082;28;20035;-82
2023/05/22 12:16:58;;;;;;;1.20;1.10;;;20.00;56.80;;;;;;8260697;28;20504;-82
2023/05/22 12:20:58;;;;;;;;;;;20.00;56.80;;;;;;8244311;28;20038;-82
2023/05/22 12:24:59;;;;;;;2.27;1.50;;;20.00;56.70;;;;;;8260574;28;19956;-82
2023/05/22 12:29:00;;;;;;;1.55;1.40;;;20.00;56.80;;;;;;8260169;28;20050;-82
2023/05/22 12:33:01;;;;;;;1.67;1.40;;;20.00;56.80;;;;;;8244111;28;20030;-82
2023/05/22 12:37:02;;;;;;;1.53;1.33;;;20.00;56.70;;;;;;8245421;28;20054;-82
2023/05/22 12:41:03;;;;;;;1.77;1.25;;;20.00;56.70;;;;;;8228101;28;20305;-82
2023/05/22 12:45:05;;;;;;;1.20;1.10;;;20.00;56.70;;;;;;8211841;28;20469;-82
2023/05/22 12:49:06;;;;;;;1.55;1.25;;;20.00;56.70;;;;;;8211796;28;20046;-82
2023/05/22 12:53:06;;;;;;;1.10;1.00;;;20.00;56.70;;;;;;8232759;28;20481;-82
2023/05/22 12:57:07;;;;;;;1.50;1.40;;;20.10;56.70;;;;;;8233534;28;20035;-82
2023/05/22 13:01:08;;;;;;;1.20;1.10;;;20.00;56.70;;;;;;8234150;28;20027;-82
2023/05/22 13:05:09;;;;;;;1.10;1.00;;;20.00;56.60;;;;;;8233524;28;20023;-82
2023/05/22 13:09:10;;;;;;;1.40;1.30;;;20.00;56.60;;;;;;8216969;28;20214;-82
2023/05/22 13:13:11;;;;;;;1.58;1.40;;;20.00;56.70;;;;;;8216948;28;20090;-82
2023/05/22 13:17:11;;;;;;;1.20;1.10;;;20.00;56.70;;;;;;8234383;28;20485;-82
2023/05/22 13:21:12;;;;;;;1.10;1.00;;;20.00;56.60;;;;;;8234242;28;20066;-82
2023/05/22 13:25:13;;;;;;;1.45;1.35;;;20.10;56.70;;;;;;8217180;28;20489;-82
2023/05/22 13:29:14;;;;;;;1.30;1.20;;;20.10;56.70;;;;;;8232439;28;20086;-82
2023/05/22 13:33:14;;;;;;;1.20;1.10;;;20.10;56.70;;;;;;8216573;28;20393;-82
2023/05/22 13:37:15;;;;;;;1.15;1.02;;;20.00;56.60;;;;;;8232707;28;20457;-82
2023/05/22 13:41:16;;;;;;;1.27;1.17;;;20.10;56.70;;;;;;8232310;28;20031;-82
2023/05/22 13:45:17;;;;;;;1.15;1.08;;;20.00;56.60;;;;;;8215953;28;20472;-82
2023/05/22 13:49:17;;;;;;;1.02;1.00;;;20.10;56.70;;;;;;8233621;28;20440;-82
2023/05/22 13:53:18;;;;;;;1.33;1.23;;;20.10;56.70;;;;;;8232355;28;20035;-82
2023/05/22 13:57:19;;;;;;;1.38;1.27;;;20.10;56.70;;;;;;8215655;28;20030;-82
2023/05/22 14:01:19;;;;;;;1.83;1.25;;;20.00;56.60;;;;;;8231093;28;20158;-82
2023/05/22 14:05:20;;;;;;;1.30;1.20;;;20.10;56.60;;;;;;8215559;28;20030;-82
2023/05/22 14:09:21;;;;;;;1.25;1.13;;;20.00;56.60;;;;;;8231755;28;20541;-82
2023/05/22 14:13:22;;;;;;;1.50;1.23;;;20.10;56.60;;;;;;8231641;28;20107;-82
2023/05/22 14:17:23;;;;;;;1.00;0.90;;;20.10;56.60;;;;;;8233018;28;20070;-82
2023/05/22 14:21:23;;;;;;;0.88;0.88;;;20.10;56.60;;;;;;8230954;28;20046;-82
2023/05/22 14:25:25;;;;;;;1.30;1.10;;;20.10;56.60;;;;;;8231164;28;20117;-82
2023/05/22 14:29:26;;;;;;;1.52;1.42;;;20.10;56.60;;;;;;8230407;28;20389;-82
2023/05/22 14:33:27;;;;;;;0.90;0.85;;;20.10;56.60;;;;;;8215010;28;20027;-82
2023/05/22 14:37:28;;;;;;;0.98;0.88;;;20.10;56.60;;;;;;8198730;28;20058;-82
2023/05/22 14:41:29;;;;;;;1.50;1.40;;;20.10;56.60;;;;;;8214272;28;20129;-82
2023/05/22 14:45:29;;;;;;;1.20;1.10;;;20.10;56.60;;;;;;8230639;28;20289;-82
2023/05/22 14:49:30;;;;;;;1.20;0.95;;;20.10;56.60;;;;;;8214365;28;20070;-82
2023/05/22 14:53:30;;;;;;;1.13;1.02;;;20.10;56.60;;;;;;8229890;28;20046;-82
2023/05/22 14:57:31;;;;;;;1.23;1.10;;;20.10;56.60;;;;;;8230230;28;20046;-82
2023/05/22 15:01:32;;;;;;;0.95;0.85;;;20.10;56.60;;;;;;8229909;28;20053;-82
2023/05/22 15:05:33;;;;;;;1.17;1.08;;;20.10;56.60;;;;;;8229765;28;20402;-82
2023/05/22 15:09:33;;;;;;;1.50;1.10;;;20.10;56.60;;;;;;8198010;28;20423;-82
2023/05/22 15:13:34;;;;;;;0.95;0.85;;;20.10;56.60;;;;;;8212658;28;20026;-82
2023/05/22 15:17:35;;;;;;;1.85;1.30;;;20.10;56.60;;;;;;8229330;28;20070;-82
2023/05/22 15:21:35;;;;;;;1.15;1.05;;;20.10;56.70;;;;;;8229214;28;20109;-82
2023/05/22 15:25:36;;;;;;;1.48;1.20;;;20.10;56.60;;;;;;8213618;28;20362;-82
2023/05/22 15:29:37;;;;;;;1.13;1.02;;;20.10;56.60;;;;;;8229460;28;20280;-82
2023/05/22 15:33:38;;;;;;;1.20;1.05;;;20.10;56.60;;;;;;8228875;28;20113;-82
2023/05/22 15:37:39;;;;;;;;;;;20.10;56.60;;;;;;8248788;28;20050;-82
2023/05/22 15:41:41;;;;;;;0.98;0.95;;;20.10;56.60;;;;;;8261690;28;19921;-82
2023/05/22 15:45:46;;;;;;;1.05;0.95;;;20.10;56.70;;;;;;8262034;28;20090;-82
2023/05/22 15:49:47;;;;;;;1.42;1.13;;;20.10;56.70;;;;;;8260527;28;20026;-82
2023/05/22 15:53:49;;;;;;;0.70;0.70;;;20.10;56.70;;;;;;8261239;28;20088;-82
2023/05/22 15:57:50;;;;;;;1.02;0.95;;;20.10;56.60;;;;;;8260668;28;20292;-82
2023/05/22 16:01:51;;;;;;;1.35;1.25;;;20.10;56.60;;;;;;8260404;28;20041;-82
2023/05/22 16:05:51;;;;;;;1.20;1.10;;;20.10;56.60;;;;;;8260632;28;20038;-82
2023/05/22 16:09:53;;;;;;;1.17;1.08;;;20.10;56.60;;;;;;8261717;28;20038;-82
2023/05/22 16:13:53;;;;;;;1.13;1.00;;;20.10;56.70;;;;;;8244507;28;20121;-82
2023/05/22 16:17:54;;;;;;;1.13;1.00;;;20.10;56.70;;;;;;8244257;28;20034;-82
2023/05/22 16:21:55;;;;;;;1.23;1.00;;;20.00;56.60;;;;;;8244305;28;20556;-82
2023/05/22 16:25:56;;;;;;;1.25;1.15;;;20.10;56.70;;;;;;8263217;28;20084;-82
2023/05/22 16:29:56;;;;;;;1.55;1.35;;;20.10;56.70;;;;;;8250463;28;20042;-82
2023/05/22 16:33:57;;;;;;;1.02;0.90;;;20.00;56.60;;;;;;8250295;28;20085;-82
2023/05/22 16:37:58;;;;;;;1.08;1.08;;;20.10;56.70;;;;;;8244179;28;20567;-82
2023/05/22 16:42:00;;;;;;;1.35;1.23;;;20.00;56.70;;;;;;8218164;28;20094;-82
2023/05/22 16:46:00;;;;;;;1.10;0.98;;;20.10;56.70;;;;;;8233806;28;20046;-82
2023/05/22 16:50:01;;;;;;;1.25;1.15;;;20.00;56.70;;;;;;8217756;28;20038;-83
2023/05/22 16:54:02;;;;;;;1.65;1.10;;;20.10;56.70;;;;;;8233935;28;20039;-83
2023/05/22 16:58:03;;;;;;;1.20;1.10;;;20.00;56.70;;;;;;8217364;28;20039;-82
2023/05/22 17:02:04;;;;;;;1.30;1.20;;;20.10;56.70;;;;;;8216958;28;20027;-82
2023/05/22 17:06:05;;;;;;;1.20;1.10;;;20.00;56.70;;;;;;8233424;28;20042;-83
2023/05/22 17:10:06;;;;;;;1.25;1.15;;;20.10;56.80;;;;;;8217778;28;20213;-83
2023/05/22 17:14:08;;;;;;;1.30;1.10;;;20.00;56.70;;;;;;8233188;28;20041;-82
2023/05/22 17:18:08;;;;;;;1.63;1.00;;;20.10;56.70;;;;;;8232894;28;20042;-83
2023/05/22 17:22:09;;;;;;;1.88;1.35;;;20.10;56.80;;;;;;8216991;28;20034;-84
2023/05/22 17:26:10;;;;;;;1.25;1.15;;;20.10;56.80;;;;;;8234011;28;20062;-83
2023/05/22 17:30:10;;;;;;;2.78;1.30;;;20.00;57.30;;;;;;8234460;28;20440;-82
2023/05/22 17:34:11;;;;;;;2.45;1.90;;;20.10;57.80;;;;;;8236864;28;20035;-82
2023/05/22 17:38:12;;;;;;;9.83;3.13;;;20.10;58.10;;;;;;8220577;28;20436;-81
2023/05/22 17:42:13;;;;;;;3.95;1.90;;;20.10;60.00;;;;;;8233200;28;20266;-81
2023/05/22 17:46:13;;;;;;;2.83;1.70;;;20.10;59.70;;;;;;8277505;28;20033;-80
2023/05/22 17:50:14;;;;;;;5.60;1.80;;;20.20;59.30;;;;;;8261309;28;20293;-81
2023/05/22 17:54:15;;;;;;;4.72;1.60;;;20.30;59.00;;;;;;8261497;28;20349;-82
2023/05/22 17:58:16;;;;;;;2.65;1.60;;;20.30;59.20;;;;;;8277152;28;20107;-81
2023/05/22 18:02:16;;;;;;;2.70;1.60;;;20.40;58.30;;;;;;8276853;28;20043;-81
2023/05/22 18:06:17;;;;;;;4.22;1.50;;;20.40;58.00;;;;;;8275832;28;20053;-81
2023/05/22 18:10:21;;;;;;;4.47;1.55;;;20.50;58.00;;;;;;8232895;28;20038;-80
2023/05/22 18:14:22;;;;;;;4.97;1.25;;;20.50;57.90;;;;;;8234077;28;20038;-81
2023/05/22 18:18:23;;;;;;;1.65;1.23;;;20.50;57.90;;;;;;8234179;28;20111;-81
2023/05/22 18:22:24;;;;;;;1.75;1.42;;;20.50;57.80;;;;;;8217932;28;20405;-81
2023/05/22 18:26:25;;;;;;;2.00;1.10;;;20.50;57.90;;;;;;8217242;28;20393;-81
2023/05/22 18:30:26;;;;;;;;;;;20.50;57.90;;;;;;8233240;28;20042;-81
2023/05/22 18:34:26;;;;;;;5.90;1.40;;;20.60;57.70;;;;;;8232546;28;19906;-81
2023/05/22 18:38:28;;;;;;;2.85;1.17;;;20.60;57.70;;;;;;8216395;28;20065;-81
2023/05/22 18:42:29;;;;;;;1.30;1.05;;;20.60;57.60;;;;;;8216861;28;20047;-82
2023/05/22 18:46:30;;;;;;;3.13;1.40;;;20.60;57.60;;;;;;8216160;28;20130;-81
2023/05/22 18:50:30;;;;;;;3.95;1.27;;;20.60;57.50;;;;;;8232124;28;20031;-81
2023/05/22 18:54:31;;;;;;;1.50;1.27;;;20.60;57.60;;;;;;8184984;29;20039;-80
2023/05/22 18:58:32;;;;;;;4.00;1.27;;;20.60;57.60;;;;;;8184213;29;20313;-81
2023/05/22 19:02:32;;;;;;;2.80;1.05;;;20.60;57.50;;;;;;8183812;29;20040;-81
2023/05/22 19:06:33;;;;;;;1.42;1.23;;;20.60;57.50;;;;;;8199955;29;20035;-81
2023/05/22 19:10:34;;;;;;;1.67;1.10;;;20.60;57.40;;;;;;8168228;29;20126;-81
2023/05/22 19:14:35;;;;;;;4.38;1.67;;;20.70;57.40;;;;;;8183594;29;20039;-82
2023/05/22 19:18:36;;;;;;;2.33;1.45;;;20.70;57.40;;;;;;8199632;29;20451;-81
2023/05/22 19:22:36;;;;;;;1.58;1.00;;;20.70;57.40;;;;;;8174837;28;20034;-81
2023/05/22 19:26:37;;;;;;;1.95;1.45;;;20.70;57.40;;;;;;8215204;28;20077;-81
2023/05/22 19:30:38;;;;;;;1.70;0.93;;;20.70;57.30;;;;;;8214978;28;20043;-81
2023/05/22 19:34:38;;;;;;;1.52;1.20;;;20.70;57.30;;;;;;8231183;28;20035;-81
2023/05/22 19:38:39;;;;;;;1.45;1.20;;;20.70;57.30;;;;;;8214784;28;20051;-81
2023/05/22 19:42:40;;;;;;;1.70;1.13;;;20.70;57.20;;;;;;8230479;28;20135;-81
2023/05/22 19:46:41;;;;;;;1.92;1.00;;;20.70;57.20;;;;;;8230729;28;20438;-81
2023/05/22 19:50:42;;;;;;;2.70;1.20;;;20.70;57.10;;;;;;8230532;28;20065;-81
2023/05/22 19:54:42;;;;;;;2.58;1.10;;;20.80;57.10;;;;;;8230828;28;20070;-81
2023/05/22 19:58:43;;;;;;;3.42;1.13;;;20.80;57.10;;;;;;8246252;28;20039;-80
2023/05/22 20:02:43;;;;;;;1.50;1.00;;;20.70;57.00;;;;;;8213602;28;20126;-81
2023/05/22 20:06:44;;;;;;;1.67;1.08;;;20.80;57.00;;;;;;8198381;28;20054;-82
2023/05/22 20:10:46;;;;;;;1.20;1.10;;;20.80;57.00;;;;;;8214574;28;20035;-81
2023/05/22 20:14:46;;;;;;;1.20;1.10;;;20.70;57.00;;;;;;8230050;28;20547;-81
2023/05/22 20:18:47;;;;;;;1.27;1.10;;;20.70;56.90;;;;;;8198785;28;20366;-81
2023/05/22 20:22:48;;;;;;;3.55;1.17;;;20.70;57.00;;;;;;8214313;28;20039;-81
2023/05/22 20:26:48;;;;;;;3.15;1.00;;;20.70;56.90;;;;;;8213847;28;20069;-81
2023/05/22 20:30:49;;;;;;;1.05;1.00;;;20.70;56.90;;;;;;8231400;28;20035;-81
2023/05/22 20:34:51;;;;;;;1.77;1.30;;;20.80;57.00;;;;;;8230078;28;20062;-81
2023/05/22 20:38:52;;;;;;;;;;;20.80;57.00;;;;;;8230425;28;20521;-80
2023/05/22 20:42:53;;;;;;;3.35;1.20;;;20.70;57.00;;;;;;8229488;28;20394;-81
2023/05/22 20:46:53;;;;;;;1.73;1.17;;;20.80;57.10;;;;;;8213840;28;20424;-81
2023/05/22 20:50:54;;;;;;;1.35;0.98;;;20.80;57.50;;;;;;8213598;28;20038;-80
2023/05/22 20:54:58;;;;;;;1.92;1.15;;;20.80;57.00;;;;;;8214118;28;20114;-81
2023/05/22 20:58:59;;;;;;;1.75;1.10;;;20.70;56.90;;;;;;8198868;29;20039;-80
2023/05/22 21:03:00;;;;;;;1.92;1.30;;;20.80;57.00;;;;;;8150218;29;20509;-81